Time,TemperatureF,DewpointF,PressureIn,WindDirection,WindDirectionDegrees,WindSpeedMPH,WindSpeedGustMPH,Humidity,HourlyPrecipIn,Conditions,Clouds,dailyrainin,SoftwareType,DateUTC
2013-06-11 00:02:00,65.7,54.3,29.88,North,-999,0.0,0.0,67,0.00,,,-99.99,FreeWX 2.04,2013-06-11 04:02:00,
2013-06-11 00:12:00,65.5,54.7,29.88,North,-999,0.0,0.0,68,0.00,,,-99.99,FreeWX 2.04,2013-06-11 04:12:00,
2013-06-11 00:22:00,65.3,54.5,29.88,North,-999,0.0,2.7,68,0.00,,,-99.99,FreeWX 2.04,2013-06-11 04:22:00,
2013-06-11 00:32:00,65.3,54.9,29.88,North,-999,0.0,4.5,69,0.00,,,-99.99,FreeWX 2.04,2013-06-11 04:32:00,
2013-06-11 00:42:00,65.1,54.7,29.88,North,-999,0.0,4.0,69,0.00,,,-99.99,FreeWX 2.04,2013-06-11 04:42:00,
2013-06-11 00:52:00,65.1,54.7,29.88,North,-999,0.0,0.0,69,0.00,,,-99.99,FreeWX 2.04,2013-06-11 04:52:00,
2013-06-11 01:03:00,64.9,54.5,29.88,North,-999,0.0,0.0,69,0.00,,,-99.99,FreeWX 2.04,2013-06-11 05:03:00,
2013-06-11 01:13:00,64.8,54.3,29.88,North,-999,0.0,3.6,69,0.00,,,-99.99,FreeWX 2.04,2013-06-11 05:13:00,
2013-06-11 01:23:00,64.6,54.5,29.88,North,-999,0.0,4.5,70,0.00,,,-99.99,FreeWX 2.04,2013-06-11 05:23:00,
2013-06-11 01:33:00,64.4,54.3,29.88,North,-999,0.0,3.6,70,0.00,,,-99.99,FreeWX 2.04,2013-06-11 05:33:00,
2013-06-11 01:43:00,64.6,55.0,29.88,North,-999,0.0,3.1,71,0.00,,,-99.99,FreeWX 2.04,2013-06-11 05:43:00,
2013-06-11 01:53:00,64.8,55.2,29.88,North,-999,0.0,3.6,71,0.00,,,-99.99,FreeWX 2.04,2013-06-11 05:53:00,
2013-06-11 02:03:00,64.9,55.8,29.88,North,-999,0.0,2.7,72,0.00,,,-99.99,FreeWX 2.04,2013-06-11 06:03:00,
2013-06-11 02:13:00,65.1,55.9,29.88,North,-999,0.0,0.0,72,0.00,,,-99.99,FreeWX 2.04,2013-06-11 06:13:00,
2013-06-11 02:23:00,65.1,55.9,29.88,North,-999,0.0,3.6,72,0.00,,,-99.99,FreeWX 2.04,2013-06-11 06:23:00,
2013-06-11 02:33:00,64.9,55.8,29.88,North,-999,0.0,3.6,72,0.00,,,-99.99,FreeWX 2.04,2013-06-11 06:33:00,
2013-06-11 02:43:00,64.8,55.6,29.88,North,-999,0.0,0.0,72,0.00,,,-99.99,FreeWX 2.04,2013-06-11 06:43:00,
2013-06-11 02:53:00,64.6,55.4,29.88,North,-999,0.0,0.0,72,0.00,,,-99.99,FreeWX 2.04,2013-06-11 06:53:00,
2013-06-11 03:03:00,64.4,55.2,29.88,North,-999,0.0,0.0,72,0.00,,,-99.99,FreeWX 2.04,2013-06-11 07:03:00,
2013-06-11 03:13:00,64.4,55.2,29.88,North,-999,0.0,0.0,72,0.00,,,-99.99,FreeWX 2.04,2013-06-11 07:13:00,
2013-06-11 03:23:00,64.2,55.0,29.88,North,-999,0.0,2.7,72,0.00,,,-99.99,FreeWX 2.04,2013-06-11 07:23:00,
2013-06-11 03:33:00,64.2,55.0,29.91,North,-999,0.0,0.0,72,0.00,,,-99.99,FreeWX 2.04,2013-06-11 07:33:00,
2013-06-11 03:43:00,64.0,54.9,29.91,North,-999,0.0,0.0,72,0.00,,,-99.99,FreeWX 2.04,2013-06-11 07:43:00,
2013-06-11 03:53:00,63.9,54.7,29.88,North,-999,0.0,0.0,72,0.00,,,-99.99,FreeWX 2.04,2013-06-11 07:53:00,
2013-06-11 04:03:00,63.7,54.5,29.88,North,-999,0.0,0.0,72,0.00,,,-99.99,FreeWX 2.04,2013-06-11 08:03:00,
2013-06-11 04:13:00,63.5,54.7,29.88,North,-999,0.0,0.0,73,0.00,,,-99.99,FreeWX 2.04,2013-06-11 08:13:00,
2013-06-11 04:23:00,63.5,54.7,29.91,North,-999,0.0,3.6,73,0.00,,,-99.99,FreeWX 2.04,2013-06-11 08:23:00,
2013-06-11 04:33:00,63.3,54.5,29.91,North,-999,0.0,0.0,73,0.00,,,-99.99,FreeWX 2.04,2013-06-11 08:33:00,
2013-06-11 04:43:00,63.1,54.3,29.91,North,-999,0.0,4.0,73,0.00,,,-99.99,FreeWX 2.04,2013-06-11 08:43:00,
2013-06-11 04:53:00,63.1,54.3,29.91,North,-999,0.0,0.0,73,0.00,,,-99.99,FreeWX 2.04,2013-06-11 08:53:00,
2013-06-11 05:03:00,63.1,54.3,29.91,North,-999,0.0,0.0,73,0.00,,,-99.99,FreeWX 2.04,2013-06-11 09:03:00,
2013-06-11 05:13:00,63.0,54.1,29.91,North,-999,0.0,2.7,73,0.00,,,-99.99,FreeWX 2.04,2013-06-11 09:13:00,
2013-06-11 05:23:00,62.8,54.0,29.91,North,-999,0.0,2.7,73,0.00,,,-99.99,FreeWX 2.04,2013-06-11 09:23:00,
2013-06-11 05:33:00,62.6,53.8,29.91,North,-999,0.0,2.7,73,0.00,,,-99.99,FreeWX 2.04,2013-06-11 09:33:00,
2013-06-11 05:43:00,62.4,53.6,29.91,North,-999,0.0,0.0,73,0.00,,,-99.99,FreeWX 2.04,2013-06-11 09:43:00,
2013-06-11 05:53:00,62.4,53.6,29.91,North,-999,0.0,0.0,73,0.00,,,-99.99,FreeWX 2.04,2013-06-11 09:53:00,
2013-06-11 06:03:00,62.4,53.6,29.94,North,-999,0.0,2.7,73,0.00,,,-99.99,FreeWX 2.04,2013-06-11 10:03:00,
2013-06-11 06:13:00,62.6,54.1,29.94,North,-999,0.0,3.6,74,0.00,,,-99.99,FreeWX 2.04,2013-06-11 10:13:00,
2013-06-11 06:23:00,62.6,54.1,29.94,North,-999,0.0,4.5,74,0.00,,,-99.99,FreeWX 2.04,2013-06-11 10:23:00,
2013-06-11 06:33:00,62.6,54.1,29.94,North,-999,0.0,5.4,74,0.00,,,-99.99,FreeWX 2.04,2013-06-11 10:33:00,
2013-06-11 06:43:00,63.0,54.9,29.94,North,-999,0.0,5.8,75,0.00,,,-99.99,FreeWX 2.04,2013-06-11 10:43:00,
2013-06-11 06:53:00,63.1,55.0,29.94,North,-999,0.0,2.7,75,0.00,,,-99.99,FreeWX 2.04,2013-06-11 10:53:00,
2013-06-11 07:03:00,63.3,55.6,29.94,North,-999,0.0,3.1,76,0.00,,,-99.99,FreeWX 2.04,2013-06-11 11:03:00,
2013-06-11 07:13:00,63.3,55.6,29.94,North,-999,0.0,4.9,76,0.00,,,-99.99,FreeWX 2.04,2013-06-11 11:13:00,
2013-06-11 07:23:00,63.7,55.9,29.94,ENE,58,1.0,5.4,76,0.00,,,-99.99,FreeWX 2.04,2013-06-11 11:23:00,
2013-06-11 07:33:00,63.9,56.1,29.97,ENE,58,1.0,6.3,76,0.00,,,-99.99,FreeWX 2.04,2013-06-11 11:33:00,
2013-06-11 07:43:00,64.0,56.3,29.97,North,-999,0.0,4.0,76,0.00,,,-99.99,FreeWX 2.04,2013-06-11 11:43:00,
2013-06-11 07:53:00,64.4,57.0,29.97,North,-999,0.0,4.5,77,0.00,,,-99.99,FreeWX 2.04,2013-06-11 11:53:00,
2013-06-11 08:03:00,64.9,57.6,29.97,North,-999,0.0,6.3,77,0.00,,,-99.99,FreeWX 2.04,2013-06-11 12:03:00,
2013-06-11 08:13:00,65.3,57.9,29.97,North,-999,0.0,4.9,77,0.00,,,-99.99,FreeWX 2.04,2013-06-11 12:13:00,
2013-06-11 08:23:00,65.8,58.5,29.97,North,-999,0.0,6.3,77,0.00,,,-99.99,FreeWX 2.04,2013-06-11 12:23:00,
2013-06-11 08:33:00,66.4,59.0,29.97,NNE,23,2.0,5.4,77,0.00,,,-99.99,FreeWX 2.04,2013-06-11 12:33:00,
2013-06-11 08:43:00,66.9,59.5,29.97,North,-999,0.0,4.5,77,0.00,,,-99.99,FreeWX 2.04,2013-06-11 12:43:00,
2013-06-11 08:53:00,67.6,59.4,29.97,NE,35,2.0,6.7,75,0.00,,,-99.99,FreeWX 2.04,2013-06-11 12:53:00,
2013-06-11 09:04:00,68.5,59.9,29.97,North,-999,0.0,3.1,74,0.00,,,-99.99,FreeWX 2.04,2013-06-11 13:04:00,
2013-06-11 09:14:00,69.4,60.1,29.97,North,356,2.0,6.3,72,0.00,,,-99.99,FreeWX 2.04,2013-06-11 13:14:00,
2013-06-11 09:24:00,70.3,60.4,29.97,NE,44,1.0,5.4,71,0.00,,,-99.99,FreeWX 2.04,2013-06-11 13:24:00,
2013-06-11 09:34:00,71.2,58.5,29.97,North,7,1.0,5.8,64,0.00,,,-99.99,FreeWX 2.04,2013-06-11 13:34:00,
2013-06-11 09:44:00,72.1,57.9,29.97,North,-999,0.0,6.3,61,0.00,,,-99.99,FreeWX 2.04,2013-06-11 13:44:00,
2013-06-11 09:54:00,73.0,57.4,29.97,North,-999,0.0,3.1,58,0.00,,,-99.99,FreeWX 2.04,2013-06-11 13:54:00,
2013-06-11 10:04:00,73.6,53.2,29.97,North,-999,0.0,5.4,49,0.00,,,-99.99,FreeWX 2.04,2013-06-11 14:04:00,
2013-06-11 10:14:00,75.0,52.9,29.97,North,-999,0.0,4.9,46,0.00,,,-99.99,FreeWX 2.04,2013-06-11 14:14:00,
2013-06-11 10:24:00,76.1,52.0,29.97,North,-999,0.0,5.4,43,0.00,,,-99.99,FreeWX 2.04,2013-06-11 14:24:00,
2013-06-11 10:34:00,77.2,50.9,29.97,North,358,1.0,4.9,40,0.00,,,-99.99,FreeWX 2.04,2013-06-11 14:34:00,
2013-06-11 10:44:00,78.1,48.2,29.97,North,352,1.0,6.3,35,0.00,,,-99.99,FreeWX 2.04,2013-06-11 14:44:00,
2013-06-11 10:54:00,79.2,47.5,29.97,NNE,12,2.0,5.8,33,0.00,,,-99.99,FreeWX 2.04,2013-06-11 14:54:00,
2013-06-11 11:04:00,79.2,45.9,29.97,North,-999,0.0,4.9,31,0.00,,,-99.99,FreeWX 2.04,2013-06-11 15:04:00,
2013-06-11 11:14:00,79.9,46.6,29.97,ENE,71,1.0,6.7,31,0.00,,,-99.99,FreeWX 2.04,2013-06-11 15:14:00,
2013-06-11 11:24:00,81.0,47.5,29.97,North,2,1.0,4.9,31,0.00,,,-99.99,FreeWX 2.04,2013-06-11 15:24:00,
2013-06-11 11:34:00,79.9,45.7,29.97,NE,47,2.0,5.4,30,0.00,,,-99.99,FreeWX 2.04,2013-06-11 15:34:00,
2013-06-11 11:44:00,80.2,47.7,29.97,North,1,1.0,5.4,32,0.00,,,-99.99,FreeWX 2.04,2013-06-11 15:44:00,
2013-06-11 11:54:00,79.7,46.4,29.97,NNW,344,1.0,5.4,31,0.00,,,-99.99,FreeWX 2.04,2013-06-11 15:54:00,
2013-06-11 12:04:00,78.8,48.0,29.97,North,5,1.0,5.4,34,0.00,,,-99.99,FreeWX 2.04,2013-06-11 16:04:00,
2013-06-11 12:14:00,79.0,50.5,29.97,North,-999,0.0,4.5,37,0.00,,,-99.99,FreeWX 2.04,2013-06-11 16:14:00,
2013-06-11 12:24:00,80.8,48.9,29.97,North,10,1.0,7.4,33,0.00,,,-99.99,FreeWX 2.04,2013-06-11 16:24:00,
2013-06-11 12:34:00,80.1,45.9,29.97,East,88,1.0,4.5,30,0.00,,,-99.99,FreeWX 2.04,2013-06-11 16:34:00,
2013-06-11 12:44:00,81.1,46.8,29.97,North,7,1.0,4.9,30,0.00,,,-99.99,FreeWX 2.04,2013-06-11 16:44:00,
2013-06-11 12:54:00,80.6,47.1,29.97,North,-999,0.0,3.1,31,0.00,,,-99.99,FreeWX 2.04,2013-06-11 16:54:00,
2013-06-11 13:04:00,83.3,48.6,29.97,North,-999,0.0,6.3,30,0.00,,,-99.99,FreeWX 2.04,2013-06-11 17:04:00,
2013-06-11 13:14:00,83.7,47.1,29.97,North,5,1.0,5.8,28,0.00,,,-99.99,FreeWX 2.04,2013-06-11 17:14:00,
2013-06-11 13:24:00,83.8,46.2,29.97,North,-999,0.0,5.4,27,0.00,,,-99.99,FreeWX 2.04,2013-06-11 17:24:00,
2013-06-11 13:34:00,84.2,46.6,29.97,NE,44,2.0,6.7,27,0.00,,,-99.99,FreeWX 2.04,2013-06-11 17:34:00,
2013-06-11 13:44:00,82.4,44.1,29.97,North,-999,0.0,6.3,26,0.00,,,-99.99,FreeWX 2.04,2013-06-11 17:44:00,
2013-06-11 13:54:00,84.6,42.6,29.97,WNW,293,1.0,4.9,23,0.00,,,-99.99,FreeWX 2.04,2013-06-11 17:54:00,
2013-06-11 14:04:00,85.6,41.2,29.97,East,99,2.0,5.8,21,0.00,,,-99.99,FreeWX 2.04,2013-06-11 18:04:00,
2013-06-11 14:14:00,84.2,41.2,29.97,North,-999,0.0,6.7,22,0.00,,,-99.99,FreeWX 2.04,2013-06-11 18:14:00,
2013-06-11 14:24:00,86.4,46.4,29.97,North,-999,0.0,5.8,25,0.00,,,-99.99,FreeWX 2.04,2013-06-11 18:24:00,
2013-06-11 14:34:00,85.1,41.9,29.97,NNE,13,2.0,5.4,22,0.00,,,-99.99,FreeWX 2.04,2013-06-11 18:34:00,
2013-06-11 14:44:00,82.9,44.4,29.97,North,-999,0.0,4.5,26,0.00,,,-99.99,FreeWX 2.04,2013-06-11 18:44:00,
2013-06-11 14:54:00,84.9,46.2,29.97,North,357,1.0,6.7,26,0.00,,,-99.99,FreeWX 2.04,2013-06-11 18:54:00,
2013-06-11 15:04:00,84.4,44.6,29.97,North,-999,0.0,5.4,25,0.00,,,-99.99,FreeWX 2.04,2013-06-11 19:04:00,
2013-06-11 15:14:00,85.6,43.5,29.97,NNE,14,1.0,5.4,23,0.00,,,-99.99,FreeWX 2.04,2013-06-11 19:14:00,
2013-06-11 15:24:00,85.1,41.9,29.97,ENE,63,2.0,5.8,22,0.00,,,-99.99,FreeWX 2.04,2013-06-11 19:24:00,
2013-06-11 15:34:00,86.5,41.9,29.94,North,357,1.0,4.9,21,0.00,,,-99.99,FreeWX 2.04,2013-06-11 19:34:00,
2013-06-11 15:44:00,87.3,39.9,29.94,SE,126,2.0,6.7,19,0.00,,,-99.99,FreeWX 2.04,2013-06-11 19:44:00,
2013-06-11 15:54:00,86.5,40.6,29.94,NNE,33,1.0,6.9,20,0.00,,,-99.99,FreeWX 2.04,2013-06-11 19:54:00,
2013-06-11 16:04:00,85.5,38.5,29.94,NE,46,2.0,6.7,19,0.00,,,-99.99,FreeWX 2.04,2013-06-11 20:04:00,
2013-06-11 16:14:00,85.5,38.5,29.94,North,10,2.0,6.9,19,0.00,,,-99.99,FreeWX 2.04,2013-06-11 20:14:00,
2013-06-11 16:24:00,84.4,42.4,29.94,SE,142,1.0,5.8,23,0.00,,,-99.99,FreeWX 2.04,2013-06-11 20:24:00,
2013-06-11 16:34:00,83.8,42.1,29.94,NNE,21,1.0,6.3,23,0.00,,,-99.99,FreeWX 2.04,2013-06-11 20:34:00,
2013-06-11 16:44:00,83.1,40.3,29.94,North,0,1.0,7.4,22,0.00,,,-99.99,FreeWX 2.04,2013-06-11 20:44:00,
2013-06-11 16:54:00,82.8,44.4,29.94,ENE,57,1.0,6.9,26,0.00,,,-99.99,FreeWX 2.04,2013-06-11 20:54:00,
2013-06-11 17:04:00,81.9,43.5,29.94,North,-999,0.0,4.9,26,0.00,,,-99.99,FreeWX 2.04,2013-06-11 21:04:00,
2013-06-11 17:14:00,81.5,43.3,29.94,NNE,20,2.0,6.9,26,0.00,,,-99.99,FreeWX 2.04,2013-06-11 21:14:00,
2013-06-11 17:24:00,81.1,43.9,29.94,North,8,2.0,6.9,27,0.00,,,-99.99,FreeWX 2.04,2013-06-11 21:24:00,
2013-06-11 17:34:00,80.6,45.3,29.94,North,-999,0.0,4.9,29,0.00,,,-99.99,FreeWX 2.04,2013-06-11 21:34:00,
2013-06-11 17:44:00,80.6,44.4,29.94,North,-999,0.0,4.5,28,0.00,,,-99.99,FreeWX 2.04,2013-06-11 21:44:00,
2013-06-11 17:54:00,80.2,43.2,29.94,SE,137,1.0,5.8,27,0.00,,,-99.99,FreeWX 2.04,2013-06-11 21:54:00,
2013-06-11 18:04:00,80.1,45.0,29.94,North,-999,0.0,4.5,29,0.00,,,-99.99,FreeWX 2.04,2013-06-11 22:04:00,
2013-06-11 18:14:00,79.7,45.5,29.94,NE,53,1.0,4.9,30,0.00,,,-99.99,FreeWX 2.04,2013-06-11 22:14:00,
2013-06-11 18:24:00,79.5,44.4,29.94,NE,44,1.0,5.4,29,0.00,,,-99.99,FreeWX 2.04,2013-06-11 22:24:00,
2013-06-11 18:34:00,79.3,45.1,29.94,North,-999,0.0,4.5,30,0.00,,,-99.99,FreeWX 2.04,2013-06-11 22:34:00,
2013-06-11 18:44:00,79.0,45.0,29.94,North,-999,0.0,5.4,30,0.00,,,-99.99,FreeWX 2.04,2013-06-11 22:44:00,
2013-06-11 18:54:00,78.8,44.8,29.91,North,-999,0.0,5.8,30,0.00,,,-99.99,FreeWX 2.04,2013-06-11 22:54:00,
2013-06-11 19:04:00,78.6,44.6,29.94,North,-999,0.0,5.8,30,0.00,,,-99.99,FreeWX 2.04,2013-06-11 23:04:00,
2013-06-11 19:14:00,78.3,44.2,29.94,North,-999,0.0,4.5,30,0.00,,,-99.99,FreeWX 2.04,2013-06-11 23:14:00,
2013-06-11 19:24:00,78.3,45.1,29.94,NE,42,1.0,5.8,31,0.00,,,-99.99,FreeWX 2.04,2013-06-11 23:24:00,
2013-06-11 19:34:00,77.9,44.8,29.94,NNE,16,2.0,6.9,31,0.00,,,-99.99,FreeWX 2.04,2013-06-11 23:34:00,
2013-06-11 19:44:00,77.4,44.4,29.94,North,-999,0.0,3.6,31,0.00,,,-99.99,FreeWX 2.04,2013-06-11 23:44:00,
2013-06-11 19:54:00,76.8,44.8,29.94,North,-999,0.0,0.0,32,0.00,,,-99.99,FreeWX 2.04,2013-06-11 23:54:00,
2013-06-11 20:04:00,76.3,46.6,29.94,North,-999,0.0,0.0,35,0.00,,,-99.99,FreeWX 2.04,2013-06-12 00:04:00,
2013-06-11 20:14:00,75.6,48.2,29.94,North,-999,0.0,0.0,38,0.00,,,-99.99,FreeWX 2.04,2013-06-12 00:14:00,
2013-06-11 20:24:00,75.0,48.4,29.94,North,-999,0.0,0.0,39,0.00,,,-99.99,FreeWX 2.04,2013-06-12 00:24:00,
2013-06-11 20:34:00,74.7,49.5,29.94,North,-999,0.0,0.0,41,0.00,,,-99.99,FreeWX 2.04,2013-06-12 00:34:00,
2013-06-11 20:45:00,74.1,50.2,29.94,North,-999,0.0,0.0,43,0.00,,,-99.99,FreeWX 2.04,2013-06-12 00:45:00,
2013-06-11 20:55:00,73.6,49.6,29.94,North,-999,0.0,0.0,43,0.00,,,-99.99,FreeWX 2.04,2013-06-12 00:55:00,
2013-06-11 21:05:00,73.2,50.0,29.94,North,-999,0.0,0.0,44,0.00,,,-99.99,FreeWX 2.04,2013-06-12 01:05:00,
2013-06-11 21:15:00,72.7,49.5,29.94,North,-999,0.0,0.0,44,0.00,,,-99.99,FreeWX 2.04,2013-06-12 01:15:00,
2013-06-11 21:25:00,72.5,50.0,29.94,North,-999,0.0,0.0,45,0.00,,,-99.99,FreeWX 2.04,2013-06-12 01:25:00,
2013-06-11 21:35:00,72.1,50.2,29.94,North,-999,0.0,0.0,46,0.00,,,-99.99,FreeWX 2.04,2013-06-12 01:35:00,
2013-06-11 21:45:00,71.6,49.6,29.94,North,-999,0.0,0.0,46,0.00,,,-99.99,FreeWX 2.04,2013-06-12 01:45:00,
2013-06-11 21:55:00,71.4,50.2,29.94,North,-999,0.0,0.0,47,0.00,,,-99.99,FreeWX 2.04,2013-06-12 01:55:00,
2013-06-11 22:05:00,71.2,51.1,29.94,North,-999,0.0,0.0,49,0.00,,,-99.99,FreeWX 2.04,2013-06-12 02:05:00,
2013-06-11 22:15:00,71.1,51.4,29.94,North,-999,0.0,0.0,50,0.00,,,-99.99,FreeWX 2.04,2013-06-12 02:15:00,
2013-06-11 22:25:00,70.3,50.2,29.94,North,-999,0.0,0.0,49,0.00,,,-99.99,FreeWX 2.04,2013-06-12 02:25:00,
2013-06-11 22:35:00,70.3,51.3,29.94,North,-999,0.0,0.0,51,0.00,,,-99.99,FreeWX 2.04,2013-06-12 02:35:00,
2013-06-11 22:45:00,70.2,51.6,29.94,North,-999,0.0,0.0,52,0.00,,,-99.99,FreeWX 2.04,2013-06-12 02:45:00,
2013-06-11 22:55:00,70.2,52.2,29.94,North,-999,0.0,0.0,53,0.00,,,-99.99,FreeWX 2.04,2013-06-12 02:55:00,
2013-06-11 23:05:00,69.8,52.3,29.94,North,-999,0.0,3.1,54,0.00,,,-99.99,FreeWX 2.04,2013-06-12 03:05:00,
2013-06-11 23:15:00,69.8,52.9,29.94,North,-999,0.0,3.6,55,0.00,,,-99.99,FreeWX 2.04,2013-06-12 03:15:00,
2013-06-11 23:25:00,69.8,53.4,29.91,North,-999,0.0,3.1,56,0.00,,,-99.99,FreeWX 2.04,2013-06-12 03:25:00,
2013-06-11 23:35:00,69.8,53.4,29.91,North,-999,0.0,0.0,56,0.00,,,-99.99,FreeWX 2.04,2013-06-12 03:35:00,
2013-06-11 23:45:00,69.8,53.4,29.91,North,-999,0.0,4.0,56,0.00,,,-99.99,FreeWX 2.04,2013-06-12 03:45:00,
2013-06-11 23:55:00,69.8,53.8,29.91,North,-999,0.0,4.0,57,0.00,,,-99.99,FreeWX 2.04,2013-06-12 03:55:00,